createdAt,value
2018-07-25T00:00:33.355Z,23.09
2018-07-25T00:03:01.205Z,23.08
2018-07-25T00:05:29.059Z,23.07
2018-07-25T00:07:57.257Z,23.04
2018-07-25T00:10:30.364Z,23.01
2018-07-25T00:12:58.208Z,23.02
2018-07-25T00:15:26.024Z,23.01
2018-07-25T00:17:53.879Z,23.01
2018-07-25T00:20:21.816Z,23.00
2018-07-25T00:22:49.727Z,22.97
2018-07-25T00:25:17.646Z,22.95
2018-07-25T00:27:45.650Z,22.92
2018-07-25T00:30:13.545Z,22.89
2018-07-25T00:32:41.328Z,22.85
2018-07-25T00:35:09.495Z,22.80
2018-07-25T00:37:37.292Z,22.78
2018-07-25T00:40:05.201Z,22.73
2018-07-25T00:42:33.049Z,22.69
2018-07-25T00:45:01.066Z,22.69
2018-07-25T00:47:28.878Z,22.66
2018-07-25T00:49:56.850Z,22.65
2018-07-25T00:52:24.761Z,22.64
2018-07-25T00:54:56.163Z,22.64
2018-07-25T00:57:24.076Z,22.64
2018-07-25T00:59:52.014Z,22.65
2018-07-25T01:02:20.490Z,22.61
2018-07-25T01:04:48.280Z,22.63
2018-07-25T01:07:16.242Z,22.64
2018-07-25T01:09:44.127Z,22.66
2018-07-25T01:12:11.934Z,22.64
2018-07-25T01:14:39.947Z,22.61
2018-07-25T01:17:08.125Z,22.62
2018-07-25T01:19:36.048Z,22.61
2018-07-25T01:22:03.939Z,22.61
2018-07-25T01:24:32.414Z,22.59
2018-07-25T01:27:01.467Z,22.55
2018-07-25T01:29:29.287Z,22.53
2018-07-25T01:31:57.338Z,22.55
2018-07-25T01:34:25.238Z,22.50
2018-07-25T01:36:53.084Z,22.45
2018-07-25T01:39:21.639Z,22.45
2018-07-25T01:41:49.445Z,22.44
2018-07-25T01:44:17.376Z,22.42
2018-07-25T01:46:45.850Z,22.40
2018-07-25T01:49:13.700Z,22.42
2018-07-25T01:51:41.603Z,22.41
2018-07-25T01:54:10.844Z,22.37
2018-07-25T01:56:38.743Z,22.40
2018-07-25T01:59:06.553Z,22.42
2018-07-25T02:01:34.553Z,22.43
2018-07-25T02:04:02.448Z,22.44
2018-07-25T02:06:30.244Z,22.42
2018-07-25T02:08:58.246Z,22.40
2018-07-25T02:11:26.003Z,22.37
2018-07-25T02:13:53.789Z,22.37
2018-07-25T02:16:22.240Z,22.35
2018-07-25T02:18:50.116Z,22.38
2018-07-25T02:21:17.982Z,22.32
2018-07-25T02:23:46.171Z,22.32
2018-07-25T02:26:13.968Z,22.30
2018-07-25T02:28:41.830Z,22.29
2018-07-25T02:31:09.977Z,22.27
2018-07-25T02:33:45.274Z,22.24
2018-07-25T02:36:13.110Z,22.23
2018-07-25T02:38:40.914Z,22.22
2018-07-25T02:41:08.726Z,22.22
2018-07-25T02:43:36.624Z,22.22
2018-07-25T02:46:04.895Z,22.25
2018-07-25T02:48:32.757Z,22.25
2018-07-25T02:51:01.721Z,22.24
2018-07-25T02:53:29.547Z,22.22
2018-07-25T02:55:57.333Z,22.25
2018-07-25T02:58:25.219Z,22.28
2018-07-25T03:00:53.055Z,22.25
2018-07-25T03:03:20.861Z,22.26
2018-07-25T03:05:48.993Z,22.25
2018-07-25T03:08:16.816Z,22.24
2018-07-25T03:10:49.941Z,22.21
2018-07-25T03:13:17.798Z,22.25
2018-07-25T03:15:45.930Z,22.27
2018-07-25T03:18:13.885Z,22.27
2018-07-25T03:20:41.748Z,22.32
2018-07-25T03:23:09.602Z,22.32
2018-07-25T03:25:37.537Z,22.35
2018-07-25T03:28:05.435Z,22.39
2018-07-25T03:30:33.190Z,22.37
2018-07-25T03:33:01.183Z,22.41
2018-07-25T03:35:29.108Z,22.41
2018-07-25T03:37:57.252Z,22.44
2018-07-25T03:40:25.527Z,22.46
2018-07-25T03:42:53.353Z,22.50
2018-07-25T03:45:21.304Z,22.56
2018-07-25T03:47:49.639Z,22.63
2018-07-25T03:50:17.592Z,22.69
2018-07-25T03:52:45.535Z,22.76
2018-07-25T03:55:13.468Z,22.82
2018-07-25T03:57:41.438Z,22.92
2018-07-25T04:00:10.165Z,23.04
2018-07-25T04:02:38.405Z,23.09
2018-07-25T04:05:07.084Z,23.11
2018-07-25T04:07:34.951Z,23.05
2018-07-25T04:10:04.218Z,23.13
2018-07-25T04:12:32.051Z,23.16
2018-07-25T04:15:00.057Z,23.23
2018-07-25T04:17:32.487Z,23.30
2018-07-25T04:20:00.436Z,23.38
2018-07-25T04:22:28.304Z,23.38
2018-07-25T04:24:56.307Z,23.47
2018-07-25T04:27:24.203Z,23.55
2018-07-25T04:29:52.116Z,23.63
2018-07-25T04:32:20.379Z,23.63
2018-07-25T04:34:48.270Z,23.61
2018-07-25T04:37:16.171Z,23.73
2018-07-25T04:39:45.092Z,23.74
2018-07-25T04:42:13.032Z,23.81
2018-07-25T04:44:40.839Z,23.92
2018-07-25T04:47:08.754Z,24.01
2018-07-25T04:49:36.674Z,24.12
2018-07-25T04:52:04.473Z,24.10
2018-07-25T04:54:32.446Z,24.14
2018-07-25T04:57:00.395Z,24.23
2018-07-25T04:59:28.163Z,24.27
2018-07-25T05:01:56.178Z,24.33
2018-07-25T05:04:24.556Z,24.48
2018-07-25T05:06:52.344Z,24.52
2018-07-25T05:09:20.262Z,24.50
2018-07-25T05:11:49.126Z,24.61
2018-07-25T05:14:16.995Z,24.77
2018-07-25T05:16:44.964Z,24.77
2018-07-25T05:19:12.948Z,24.86
2018-07-25T05:21:41.293Z,24.90
2018-07-25T05:24:09.200Z,25.19
2018-07-25T05:26:38.910Z,25.36
2018-07-25T05:29:06.870Z,25.45
2018-07-25T05:31:34.853Z,25.65
2018-07-25T05:34:02.830Z,25.72
2018-07-25T05:36:31.006Z,26.09
2018-07-25T05:38:59.213Z,26.66
2018-07-25T05:41:27.084Z,26.81
2018-07-25T05:43:55.071Z,26.92
2018-07-25T05:46:28.012Z,27.07
2018-07-25T05:48:55.901Z,26.93
2018-07-25T05:51:24.058Z,26.51
2018-07-25T05:53:52.181Z,26.22
2018-07-25T05:56:20.034Z,26.25
2018-07-25T05:58:48.135Z,25.71
2018-07-25T06:01:15.965Z,25.83
2018-07-25T06:03:43.828Z,25.68
2018-07-25T06:06:11.832Z,25.87
2018-07-25T06:08:39.870Z,25.91
2018-07-25T06:11:07.887Z,25.81
2018-07-25T06:13:36.732Z,25.81
2018-07-25T06:16:05.136Z,25.75
2018-07-25T06:18:32.975Z,25.75
2018-07-25T06:21:01.294Z,25.84
2018-07-25T06:23:29.181Z,25.85
2018-07-25T06:25:57.135Z,25.97
2018-07-25T06:28:26.508Z,26.04
2018-07-25T06:30:54.344Z,26.23
2018-07-25T06:33:22.321Z,26.46
2018-07-25T06:35:50.782Z,26.64
2018-07-25T06:38:18.752Z,26.64
2018-07-25T06:40:46.653Z,26.52
2018-07-25T06:43:14.672Z,26.39
2018-07-25T06:45:42.626Z,26.50
2018-07-25T06:48:10.931Z,26.46
2018-07-25T06:50:39.108Z,26.67
2018-07-25T06:53:14.754Z,26.77
2018-07-25T06:55:42.638Z,26.78
2018-07-25T06:58:10.636Z,26.61
2018-07-25T07:00:38.577Z,26.49
2018-07-25T07:03:06.461Z,26.49
2018-07-25T07:05:34.243Z,26.82
2018-07-25T07:08:02.172Z,26.62
2018-07-25T07:10:30.147Z,26.71
2018-07-25T07:12:58.095Z,26.66
2018-07-25T07:15:25.973Z,26.94
2018-07-25T07:17:54.284Z,26.96
2018-07-25T07:20:22.292Z,26.95
2018-07-25T07:22:50.268Z,27.10
2018-07-25T07:25:18.312Z,27.27
2018-07-25T07:27:46.134Z,27.27
2018-07-25T07:30:14.003Z,27.03
2018-07-25T07:32:41.900Z,27.08
2018-07-25T07:35:09.877Z,27.16
2018-07-25T07:37:37.827Z,27.42
2018-07-25T07:40:06.271Z,27.75
2018-07-25T07:42:34.203Z,27.59
2018-07-25T07:45:02.176Z,27.96
2018-07-25T07:47:30.478Z,28.20
2018-07-25T07:49:58.335Z,27.61
2018-07-25T07:52:26.176Z,27.53
2018-07-25T07:54:54.329Z,27.42
2018-07-25T07:57:22.195Z,27.30
2018-07-25T07:59:50.098Z,27.56
2018-07-25T08:02:18.358Z,27.55
2018-07-25T08:04:46.223Z,27.80
2018-07-25T08:07:14.089Z,27.89
2018-07-25T08:09:42.003Z,27.92
2018-07-25T08:12:09.772Z,27.74
2018-07-25T08:14:38.094Z,27.71
2018-07-25T08:17:07.856Z,28.34
2018-07-25T08:19:36.514Z,28.34
2018-07-25T08:22:04.556Z,28.42
2018-07-25T08:24:32.475Z,28.05
2018-07-25T08:27:00.526Z,27.91
2018-07-25T08:29:28.493Z,28.10
2018-07-25T08:31:56.529Z,27.81
2018-07-25T08:34:24.403Z,27.73
2018-07-25T08:36:52.327Z,27.48
2018-07-25T08:39:21.047Z,27.54
2018-07-25T08:41:49.081Z,27.77
2018-07-25T08:44:16.891Z,27.84
2018-07-25T08:46:45.238Z,27.90
2018-07-25T08:49:13.156Z,28.00
2018-07-25T08:51:41.016Z,27.82
2018-07-25T08:54:08.921Z,27.59
2018-07-25T08:56:36.871Z,27.65
2018-07-25T08:59:04.902Z,27.72
2018-07-25T09:01:33.190Z,27.68
2018-07-25T09:04:01.056Z,27.96
2018-07-25T09:06:29.445Z,27.62
2018-07-25T09:08:57.430Z,27.37
2018-07-25T09:11:25.958Z,27.39
2018-07-25T09:13:53.979Z,27.58
2018-07-25T09:16:22.119Z,27.69
2018-07-25T09:18:50.831Z,28.02
2018-07-25T09:21:18.682Z,28.19
2018-07-25T09:23:47.992Z,28.35
2018-07-25T09:26:15.840Z,28.60
2018-07-25T09:28:43.716Z,28.86
2018-07-25T09:31:11.815Z,29.15
2018-07-25T09:33:39.654Z,29.04
2018-07-25T09:36:07.605Z,28.80
2018-07-25T09:38:35.648Z,28.79
2018-07-25T09:41:03.764Z,29.00
2018-07-25T09:43:31.695Z,28.92
2018-07-25T09:45:59.935Z,28.86
2018-07-25T09:48:27.773Z,29.33
2018-07-25T09:50:55.603Z,29.24
2018-07-25T09:53:23.869Z,28.94
2018-07-25T09:55:54.009Z,28.66
2018-07-25T09:58:21.943Z,28.80
2018-07-25T10:00:51.254Z,28.90
2018-07-25T10:03:19.736Z,29.36
2018-07-25T10:05:47.784Z,29.48
2018-07-25T10:08:17.114Z,29.23
2018-07-25T10:10:45.412Z,29.28
2018-07-25T10:13:13.601Z,29.34
2018-07-25T10:15:41.572Z,29.60
2018-07-25T10:18:09.620Z,29.79
2018-07-25T10:20:37.600Z,29.88
2018-07-25T10:23:05.496Z,29.79
2018-07-25T10:25:33.398Z,30.07
2018-07-25T10:28:01.381Z,30.33
2018-07-25T10:30:29.435Z,30.19
2018-07-25T10:32:57.523Z,30.41
2018-07-25T10:35:25.319Z,30.52
2018-07-25T10:37:53.275Z,30.83
2018-07-25T10:40:21.199Z,30.92
2018-07-25T10:42:49.045Z,31.01
2018-07-25T10:45:16.958Z,30.91
2018-07-25T10:47:44.801Z,31.03
2018-07-25T10:50:12.776Z,30.64
2018-07-25T10:52:41.505Z,30.58
2018-07-25T10:55:09.260Z,30.51
2018-07-25T10:57:37.162Z,30.70
2018-07-25T11:00:06.432Z,31.00
2018-07-25T11:02:34.468Z,31.00
2018-07-25T11:05:02.374Z,30.63
2018-07-25T11:07:30.709Z,30.55
2018-07-25T11:09:58.640Z,30.45
2018-07-25T11:12:26.543Z,30.74
2018-07-25T11:14:54.596Z,30.65
2018-07-25T11:17:23.311Z,30.69
2018-07-25T11:19:51.106Z,30.81
2018-07-25T11:22:18.996Z,31.23
2018-07-25T11:24:46.859Z,31.81
2018-07-25T11:27:14.766Z,32.28
2018-07-25T11:29:42.805Z,32.49
2018-07-25T11:32:10.663Z,32.40
2018-07-25T11:34:38.528Z,31.53
2018-07-25T11:37:06.590Z,31.36
2018-07-25T11:39:34.496Z,30.95
2018-07-25T11:42:02.359Z,30.73
2018-07-25T11:44:30.218Z,30.51
2018-07-25T11:46:58.126Z,30.56
2018-07-25T11:49:25.932Z,30.50
2018-07-25T11:51:54.139Z,30.47
2018-07-25T11:54:21.980Z,30.81
2018-07-25T11:56:49.864Z,31.09
2018-07-25T11:59:17.971Z,31.18
2018-07-25T12:01:45.853Z,31.17
2018-07-25T12:04:13.756Z,30.89
2018-07-25T12:06:41.698Z,30.95
2018-07-25T12:09:10.894Z,30.95
2018-07-25T12:11:44.456Z,30.53
2018-07-25T12:14:13.440Z,30.56
2018-07-25T12:16:41.374Z,30.11
2018-07-25T12:19:09.748Z,30.51
2018-07-25T12:21:37.711Z,30.72
2018-07-25T12:24:05.704Z,30.78
2018-07-25T12:26:33.690Z,31.03
2018-07-25T12:29:02.693Z,30.98
2018-07-25T12:31:30.556Z,30.81
2018-07-25T12:33:58.554Z,31.04
2018-07-25T12:36:26.490Z,31.43
2018-07-25T12:38:54.425Z,31.45
2018-07-25T12:41:22.456Z,31.47
2018-07-25T12:43:51.357Z,31.50
2018-07-25T12:46:19.294Z,31.18
2018-07-25T12:48:47.417Z,31.20
2018-07-25T12:51:15.383Z,31.43
2018-07-25T12:53:43.429Z,31.52
2018-07-25T12:56:11.340Z,31.44
2018-07-25T12:58:40.162Z,30.93
2018-07-25T13:01:08.095Z,30.62
2018-07-25T13:03:36.496Z,30.45
2018-07-25T13:06:04.508Z,30.35
2018-07-25T13:08:32.453Z,30.39
2018-07-25T13:11:00.442Z,30.56
2018-07-25T13:13:28.258Z,30.48
2018-07-25T13:15:56.202Z,30.37
2018-07-25T13:18:24.380Z,30.59
2018-07-25T13:20:52.252Z,30.94
2018-07-25T13:23:20.217Z,30.61
2018-07-25T13:25:48.308Z,30.53
2018-07-25T13:28:16.200Z,30.61
2018-07-25T13:30:44.054Z,30.38
2018-07-25T13:33:12.349Z,30.13
2018-07-25T13:35:40.174Z,30.24
2018-07-25T13:38:08.135Z,29.93
2018-07-25T13:40:36.348Z,30.01
2018-07-25T13:43:04.196Z,29.87
2018-07-25T13:45:32.120Z,29.90
2018-07-25T13:48:00.209Z,29.92
2018-07-25T13:50:28.249Z,29.96
2018-07-25T13:52:56.110Z,30.09
2018-07-25T13:55:24.444Z,30.12
2018-07-25T13:57:53.307Z,30.04
2018-07-25T14:00:21.171Z,30.09
2018-07-25T14:02:49.196Z,30.20
2018-07-25T14:05:17.149Z,30.48
2018-07-25T14:07:46.194Z,30.66
2018-07-25T14:10:14.241Z,30.66
2018-07-25T14:12:42.179Z,30.83
2018-07-25T14:15:10.152Z,30.71
2018-07-25T14:17:38.800Z,30.42
2018-07-25T14:20:06.658Z,30.25
2018-07-25T14:22:34.628Z,30.19
2018-07-25T14:25:02.551Z,30.09
2018-07-25T14:27:30.360Z,30.08
2018-07-25T14:29:58.245Z,30.04
2018-07-25T14:32:26.477Z,29.90
2018-07-25T14:34:54.393Z,29.75
2018-07-25T14:37:22.245Z,29.60
2018-07-25T14:39:50.131Z,29.57
2018-07-25T14:42:18.045Z,29.46
2018-07-25T14:44:45.879Z,29.59
2018-07-25T14:47:13.801Z,29.81
2018-07-25T14:49:41.590Z,30.04
2018-07-25T14:52:09.658Z,29.95
2018-07-25T14:54:37.749Z,29.66
2018-07-25T14:57:05.720Z,29.65
2018-07-25T14:59:33.722Z,29.84
2018-07-25T15:02:01.783Z,29.91
2018-07-25T15:04:29.769Z,30.03
2018-07-25T15:06:57.715Z,29.99
2018-07-25T15:09:26.696Z,30.11
2018-07-25T15:11:54.589Z,30.10
2018-07-25T15:14:22.498Z,30.23
2018-07-25T15:16:50.494Z,30.23
2018-07-25T15:19:18.430Z,30.23
2018-07-25T15:21:46.208Z,30.22
2018-07-25T15:24:14.997Z,30.11
2018-07-25T15:26:42.781Z,29.85
2018-07-25T15:29:10.735Z,30.15
2018-07-25T15:31:38.692Z,30.06
2018-07-25T15:34:06.627Z,29.84
2018-07-25T15:36:41.320Z,29.79
2018-07-25T15:39:13.048Z,29.75
2018-07-25T15:41:41.655Z,29.68
2018-07-25T15:44:09.487Z,29.80
2018-07-25T15:46:37.431Z,29.93
2018-07-25T15:49:05.920Z,29.82
2018-07-25T15:51:34.019Z,29.89
2018-07-25T15:54:02.479Z,29.89
2018-07-25T15:56:30.998Z,29.92
2018-07-25T15:58:59.051Z,29.87
2018-07-25T16:01:27.058Z,29.73
2018-07-25T16:03:55.169Z,29.80
2018-07-25T16:06:23.431Z,29.82
2018-07-25T16:08:51.535Z,29.80
2018-07-25T16:11:19.489Z,29.79
2018-07-25T16:13:47.669Z,29.65
2018-07-25T16:16:15.840Z,29.63
2018-07-25T16:18:44.425Z,29.56
2018-07-25T16:21:12.449Z,29.51
2018-07-25T16:23:40.267Z,29.37
2018-07-25T16:26:08.277Z,29.29
2018-07-25T16:28:37.284Z,29.27
2018-07-25T16:31:06.293Z,29.27
2018-07-25T16:33:34.331Z,29.30
2018-07-25T16:36:02.203Z,29.28
2018-07-25T16:38:30.080Z,29.23
2018-07-25T16:40:58.359Z,29.17
2018-07-25T16:43:26.366Z,29.14
2018-07-25T16:45:54.457Z,29.11
2018-07-25T16:48:22.606Z,29.01
2018-07-25T16:50:50.424Z,28.97
2018-07-25T16:53:18.327Z,28.96
2018-07-25T16:55:46.243Z,28.91
2018-07-25T16:58:14.210Z,28.76
2018-07-25T17:00:42.181Z,28.70
2018-07-25T17:03:10.238Z,28.60
2018-07-25T17:05:38.310Z,28.52
2018-07-25T17:08:06.200Z,28.41
2018-07-25T17:10:34.364Z,28.35
2018-07-25T17:13:02.428Z,28.31
2018-07-25T17:15:30.299Z,28.28
2018-07-25T17:17:58.327Z,28.22
2018-07-25T17:20:26.249Z,28.15
2018-07-25T17:22:54.437Z,28.11
2018-07-25T17:25:22.658Z,28.06
2018-07-25T17:27:50.450Z,28.01
2018-07-25T17:30:18.376Z,27.98
2018-07-25T17:32:46.271Z,27.84
2018-07-25T17:35:14.167Z,27.74
2018-07-25T17:37:42.139Z,27.79
2018-07-25T17:40:10.091Z,27.72
2018-07-25T17:42:37.944Z,27.64
2018-07-25T17:45:08.054Z,27.60
2018-07-25T17:47:36.059Z,27.55
2018-07-25T17:50:05.216Z,27.48
2018-07-25T17:52:33.049Z,27.48
2018-07-25T17:55:00.932Z,27.39
2018-07-25T17:57:28.924Z,27.31
2018-07-25T17:59:56.866Z,27.36
2018-07-25T18:02:24.940Z,27.38
2018-07-25T18:04:52.766Z,27.33
2018-07-25T18:07:20.783Z,27.34
2018-07-25T18:09:49.071Z,27.32
2018-07-25T18:12:16.945Z,27.36
2018-07-25T18:14:44.786Z,27.38
2018-07-25T18:17:12.663Z,27.35
2018-07-25T18:19:40.591Z,27.32
2018-07-25T18:22:08.603Z,27.27
2018-07-25T18:24:37.639Z,27.17
2018-07-25T18:27:05.682Z,27.19
2018-07-25T18:29:33.715Z,27.01
2018-07-25T18:32:02.079Z,26.99
2018-07-25T18:34:29.904Z,26.79
2018-07-25T18:36:57.841Z,26.78
2018-07-25T18:39:26.074Z,26.72
2018-07-25T18:41:54.002Z,26.70
2018-07-25T18:44:22.246Z,26.63
2018-07-25T18:46:50.639Z,26.60
2018-07-25T18:49:18.552Z,26.60
2018-07-25T18:51:46.474Z,26.54
2018-07-25T18:56:52.822Z,26.33
2018-07-25T18:59:21.120Z,26.28
2018-07-25T19:01:49.094Z,26.21
2018-07-25T19:04:17.064Z,26.08
2018-07-25T19:06:45.167Z,25.97
2018-07-25T19:09:15.027Z,25.97
2018-07-25T19:11:43.093Z,25.80
2018-07-25T19:14:16.437Z,25.69
2018-07-25T19:16:44.370Z,25.70
2018-07-25T19:19:12.258Z,25.66
2018-07-25T19:21:40.404Z,25.73
2018-07-25T19:24:08.223Z,25.66
2018-07-25T19:26:36.105Z,25.78
2018-07-25T19:29:04.204Z,25.74
2018-07-25T19:31:32.087Z,25.77
2018-07-25T19:33:59.996Z,25.62
2018-07-25T19:36:28.997Z,25.67
2018-07-25T19:38:56.769Z,25.67
2018-07-25T19:41:24.764Z,25.64
2018-07-25T19:43:53.065Z,25.58
2018-07-25T19:46:20.823Z,25.43
2018-07-25T19:48:48.600Z,25.34
2018-07-25T19:51:17.022Z,25.30
2018-07-25T19:53:45.062Z,25.26
2018-07-25T19:56:12.840Z,25.30
2018-07-25T19:58:40.699Z,25.31
2018-07-25T20:01:08.705Z,25.26
2018-07-25T20:03:36.461Z,25.25
2018-07-25T20:06:05.292Z,25.24
2018-07-25T20:08:33.231Z,25.09
2018-07-25T20:11:01.127Z,25.00
2018-07-25T20:13:31.208Z,24.87
2018-07-25T20:16:00.272Z,24.65
2018-07-25T20:18:29.198Z,24.44
2018-07-25T20:20:57.777Z,24.35
2018-07-25T20:23:26.606Z,24.28
2018-07-25T20:25:54.552Z,24.06
2018-07-25T20:28:22.745Z,24.07
2018-07-25T20:30:50.568Z,24.10
2018-07-25T20:33:18.390Z,24.05
2018-07-25T20:35:46.314Z,24.13
2018-07-25T20:38:14.196Z,24.04
2018-07-25T20:40:42.142Z,23.90
2018-07-25T20:43:10.145Z,23.72
2018-07-25T20:45:37.865Z,23.59
2018-07-25T20:48:05.836Z,23.57
2018-07-25T20:50:33.983Z,23.54
2018-07-25T20:53:01.863Z,23.55
2018-07-25T20:55:29.605Z,23.57
2018-07-25T20:57:57.614Z,23.54
2018-07-25T21:00:30.991Z,23.50
2018-07-25T21:02:59.471Z,23.57
2018-07-25T21:05:27.339Z,23.59
2018-07-25T21:07:55.282Z,23.56
2018-07-25T21:10:23.487Z,23.54
2018-07-25T21:12:51.368Z,23.53
2018-07-25T21:15:19.281Z,23.51
2018-07-25T21:17:47.656Z,23.52
2018-07-25T21:20:15.596Z,23.62
2018-07-25T21:22:43.547Z,23.59
2018-07-25T21:25:11.412Z,23.62
2018-07-25T21:27:39.305Z,23.74
2018-07-25T21:30:07.139Z,23.72
2018-07-25T21:32:35.272Z,23.64
2018-07-25T21:35:03.236Z,23.72
2018-07-25T21:37:31.175Z,23.78
2018-07-25T21:39:59.496Z,23.72
2018-07-25T21:42:27.462Z,23.65
2018-07-25T21:44:55.288Z,23.73
2018-07-25T21:47:23.164Z,23.82
2018-07-25T21:49:50.935Z,23.86
2018-07-25T21:52:18.721Z,23.89
2018-07-25T21:54:47.281Z,23.94
2018-07-25T21:57:15.187Z,23.91
2018-07-25T21:59:42.966Z,23.97
2018-07-25T22:02:11.214Z,24.01
2018-07-25T22:04:39.180Z,24.03
2018-07-25T22:07:07.034Z,23.94
2018-07-25T22:09:35.101Z,23.97
2018-07-25T22:12:03.044Z,23.96
2018-07-25T22:14:30.817Z,23.86
2018-07-25T22:16:59.859Z,23.73
2018-07-25T22:19:27.734Z,23.74
2018-07-25T22:21:55.628Z,23.79
2018-07-25T22:24:23.795Z,23.72
2018-07-25T22:26:51.635Z,23.70
2018-07-25T22:29:19.550Z,23.62
2018-07-25T22:31:47.689Z,23.60
2018-07-25T22:34:15.565Z,23.51
2018-07-25T22:36:43.415Z,23.47
2018-07-25T22:39:11.652Z,23.45
2018-07-25T22:41:39.510Z,23.39
2018-07-25T22:44:07.290Z,23.38
2018-07-25T22:46:35.677Z,23.40
2018-07-25T22:49:03.592Z,23.35
2018-07-25T22:51:31.454Z,23.23
2018-07-25T22:53:59.311Z,23.27
2018-07-25T22:56:27.131Z,23.20
2018-07-25T22:58:54.996Z,23.18
2018-07-25T23:01:23.299Z,23.26
2018-07-25T23:03:51.111Z,23.30
2018-07-25T23:06:18.918Z,23.34
2018-07-25T23:08:47.055Z,23.32
2018-07-25T23:11:14.998Z,23.26
2018-07-25T23:13:46.590Z,23.24
2018-07-25T23:16:15.851Z,23.20
2018-07-25T23:18:43.851Z,23.25
2018-07-25T23:21:12.122Z,23.21
2018-07-25T23:23:39.913Z,23.20
2018-07-25T23:26:07.706Z,23.22
2018-07-25T23:28:36.350Z,23.14
2018-07-25T23:31:04.126Z,23.15
2018-07-25T23:33:31.919Z,23.15
2018-07-25T23:36:00.169Z,23.17
2018-07-25T23:38:28.017Z,23.18
2018-07-25T23:40:55.843Z,23.18
2018-07-25T23:43:23.884Z,23.12
2018-07-25T23:45:51.818Z,23.11
2018-07-25T23:48:19.611Z,23.12
2018-07-25T23:50:47.499Z,23.14
2018-07-25T23:53:15.866Z,23.14
2018-07-25T23:55:43.683Z,23.17
2018-07-25T23:58:12.674Z,23.17
